메인 페이지
METAR-TAF:

METAR-TAF

공항 :

공군기지

산투스, 상파울루, 브라질

위도: 23-56S, 경도: 046-18W, 고도: 3m

현재 날씨관측

예보는 10 시간 38분 전, 21:00시(UTC)에 발표되었습니다.
여러 방향의 바람 2kt
온도 17°C
습도 94%
기압 1024 hPa
시정: 5000m
고도 1100ft 상공 구름 조금
고도 2800ft 상공 구름 많음
고도 8400ft 상공 흐림
이슬비, 박무

METAR: SBST 222100Z VRB02KT 5000 DZ BR FEW011 BKN028 OVC084 17/16 Q1024

시각: 04:38 (07:38 UTC)


TAF: 누락

4,000개 이상의 공항 관측 자료 및 예보 (METAR 및 TAF 보고).

지도상에서 검색 가능한 기상관측소가 노란 점과 빨간 점으로 표시되어 있습니다.

기상관측소 명을 보려면 표시 위로 마우스를 이동하세요.

날씨 관측과 예보를 보려면 클릭하세요.

지도 변경 : 확대하려면 엑스 표시가 있는 녹색 버튼, 축소하려면 빼기 표시가 있는 녹색 버튼, 다음 페이지의 지도를 보려면 녹색 화살표를 클릭하세요.


METAR-TAF: